Time;durP1;ratioP1;P1;durP2;ratioP2;P2;SDS_P1;SDS_P2;PMS_P1;PMS_P2;Temp;Humidity;BMP_temperature;BMP_pressure;BME280_temperature;BME280_humidity;BME280_pressure;Samples;Min_cycle;Max_cycle;Signal;HPM_P1;HPM_P2
2023/09/24 00:02:11;;;;;;;8.45;2.10;;;;;;;-142.57;100.00;58413.50;5035344;28;20032;-83
2023/09/24 00:04:37;;;;;;;3.90;1.85;;;;;;;-142.57;100.00;58455.97;5034596;28;20047;-83
2023/09/24 00:07:03;;;;;;;3.20;1.35;;;;;;;-142.57;100.00;58474.16;5035735;28;20072;-80
2023/09/24 00:09:28;;;;;;;6.00;1.70;;;;;;;-142.57;100.00;58486.28;5036244;28;20030;-84
2023/09/24 00:11:54;;;;;;;9.93;2.15;;;;;;;-142.57;100.00;58397.31;5036887;28;20029;-82
2023/09/24 00:14:20;;;;;;;5.70;1.75;;;;;;;-142.57;100.00;58490.34;5035561;28;20103;-83
2023/09/24 00:16:45;;;;;;;4.72;1.30;;;;;;;-142.57;100.00;58504.50;5036143;28;20045;-80
2023/09/24 00:19:11;;;;;;;5.75;1.92;;;;;;;-142.57;100.00;58344.75;5034717;28;20032;-80
2023/09/24 00:21:37;;;;;;;7.35;1.55;;;;;;;-142.57;100.00;58251.75;5039474;28;20048;-80
2023/09/24 00:24:03;;;;;;;5.75;1.50;;;;;;;-142.57;100.00;58243.66;5036968;28;20398;-81
2023/09/24 00:26:29;;;;;;;3.88;1.40;;;;;;;-142.57;100.00;58302.31;5042877;28;20036;-81
2023/09/24 00:28:56;;;;;;;3.70;1.20;;;;;;;-142.57;100.00;58308.38;5049348;28;20034;-80
2023/09/24 00:31:22;;;;;;;5.65;1.20;;;;;;;-142.57;98.91;58377.09;5036831;28;20040;-81
2023/09/24 00:33:51;;;;;;;2.38;1.08;;;;;;;-142.57;99.63;58284.09;5034008;28;20064;-85
2023/09/24 00:36:17;;;;;;;7.57;1.27;;;;;;;-142.57;99.79;58213.34;5035933;28;20029;-87
2023/09/24 00:38:43;;;;;;;2.90;0.90;;;;;;;-142.57;99.43;58207.28;5035022;28;20067;-82
2023/09/24 00:41:08;;;;;;;3.03;1.10;;;;;;;-142.57;100.00;58092.03;5035936;28;20360;-83
2023/09/24 00:43:34;;;;;;;4.90;1.23;;;;;;;-142.57;100.00;58124.38;5034957;28;20037;-81
2023/09/24 00:46:07;;;;;;;2.42;1.15;;;;;;;-142.57;100.00;58191.09;5036270;28;20102;-83
2023/09/24 00:48:34;;;;;;;4.80;1.15;;;;;;;-142.57;99.97;58235.56;5035166;28;20052;-82
2023/09/24 00:51:02;;;;;;;3.22;1.15;;;;;;;-142.57;99.14;58207.28;5036120;28;20029;-80
2023/09/24 00:53:29;;;;;;;4.47;1.00;;;;;;;-142.57;100.00;58187.06;5036489;28;20478;-83
2023/09/24 00:55:56;;;;;;;3.92;1.00;;;;;;;-142.57;100.00;58122.34;5034911;28;20119;-80
2023/09/24 00:58:26;;;;;;;3.15;1.13;;;;;;;-142.57;100.00;58102.13;5035849;28;20041;-84
2023/09/24 01:00:53;;;;;;;1.95;1.00;;;;;;;-142.57;100.00;58162.78;5035398;28;20033;-80
2023/09/24 01:03:23;;;;;;;8.55;1.30;;;;;;;-142.57;99.11;58239.63;5035914;28;20369;-84
2023/09/24 01:05:53;;;;;;;4.65;1.10;;;;;;;-142.57;99.19;58203.22;5034184;28;20036;-82
2023/09/24 01:08:20;;;;;;;6.20;1.50;;;;;;;-142.57;100.00;58114.28;5035151;28;20127;-85
2023/09/24 01:10:47;;;;;;;6.32;1.83;;;;;;;-142.57;100.00;58150.66;5037101;28;20026;-84
2023/09/24 01:13:19;;;;;;;2.90;1.42;;;;;;;-142.57;100.00;58069.78;5034295;28;20416;-84
2023/09/24 01:15:48;;;;;;;5.00;2.78;;;;;;;-142.57;100.00;58118.31;5033173;28;20042;-86
2023/09/24 01:18:14;;;;;;;3.85;1.60;;;;;;;-142.57;99.14;58225.47;5034829;28;20057;-83
2023/09/24 01:20:40;;;;;;;9.55;1.75;;;;;;;-142.57;96.97;58288.16;5035121;28;20129;-84
2023/09/24 01:23:11;;;;;;;4.03;1.23;;;;;;;-142.57;97.91;58205.25;5037679;28;20044;-82
2023/09/24 01:25:37;;;;;;;3.55;1.35;;;;;;;-142.57;100.00;58136.50;5045224;28;20033;-82
2023/09/24 01:28:05;;;;;;;5.65;1.60;;;;;;;-142.57;100.00;58132.47;5035126;28;20033;-85
2023/09/24 01:30:31;;;;;;;4.40;1.67;;;;;;;-142.57;100.00;58134.50;5033156;28;20075;-81
2023/09/24 01:32:58;;;;;;;3.55;1.67;;;;;;;-142.57;100.00;58094.06;5034454;28;20037;-82
2023/09/24 01:35:28;;;;;;;7.35;1.85;;;;;;;-142.57;100.00;58096.06;5034383;28;20037;-85
2023/09/24 01:38:00;;;;;;;5.10;1.42;;;;;;;-142.57;100.00;58098.09;5033347;28;20052;-83
2023/09/24 01:40:32;;;;;;;5.63;1.80;;;;;;;-142.57;100.00;58130.44;5034752;28;20038;-85
2023/09/24 01:42:59;;;;;;;7.47;1.60;;;;;;;-142.57;100.00;58118.31;5034499;28;20120;-82
2023/09/24 01:45:26;;;;;;;4.07;1.40;;;;;;;-142.57;100.00;58118.31;5032781;28;20024;-82
2023/09/24 01:47:52;;;;;;;4.05;1.58;;;;;;;-142.57;100.00;58079.91;5034365;28;20113;-81
2023/09/24 01:50:18;;;;;;;2.10;1.00;;;;;;;-142.57;100.00;57944.44;5045424;28;20045;-81
2023/09/24 01:52:47;;;;;;;3.47;1.40;;;;;;;-142.57;100.00;57837.31;5047383;28;20046;-84
2023/09/24 01:55:15;;;;;;;3.15;1.58;;;;;;;-142.57;100.00;57784.75;5035307;28;20035;-83
2023/09/24 01:57:44;;;;;;;3.80;1.38;;;;;;;-142.57;100.00;57883.81;5034156;28;20091;-81
2023/09/24 02:00:32;;;;;;;2.67;1.33;;;;;;;-142.57;100.00;57944.44;5032819;28;20033;-80
2023/09/24 02:03:00;;;;;;;2.65;1.38;;;;;;;-142.57;100.00;57992.97;5033564;28;20173;-83
2023/09/24 02:05:36;;;;;;;10.95;1.60;;;;;;;-142.57;100.00;57992.97;5037398;28;20071;-83
2023/09/24 02:08:06;;;;;;;5.25;1.38;;;;;;;-142.57;100.00;57920.19;5037157;28;20036;-81
2023/09/24 02:10:33;;;;;;;3.67;1.20;;;;;;;-142.57;100.00;57908.06;5038058;28;20454;-81
2023/09/24 02:13:00;;;;;;;5.88;1.55;;;;;;;-142.57;100.00;57920.19;5021208;28;20444;-82
2023/09/24 02:15:27;;;;;;;5.50;1.40;;;;;;;-142.57;100.00;57857.50;5037853;28;20034;-85
2023/09/24 02:17:52;;;;;;;3.53;1.50;;;;;;;-142.57;100.00;57908.06;5037978;28;20112;-84
2023/09/24 02:20:31;;;;;;;3.45;1.20;;;;;;;-142.57;100.00;57815.06;5036430;28;20084;-84
2023/09/24 02:23:02;;;;;;;4.43;1.85;;;;;;;-142.57;100.00;57875.72;5036280;28;20037;-85
2023/09/24 02:25:29;;;;;;;5.18;1.38;;;;;;;-142.57;100.00;57960.63;5037979;28;20040;-81
2023/09/24 02:27:56;;;;;;;6.15;1.52;;;;;;;-142.57;100.00;57936.38;5037595;28;20171;-82
2023/09/24 02:30:24;;;;;;;6.05;1.35;;;;;;;-142.57;100.00;57877.72;5036307;28;20474;-83
2023/09/24 02:32:50;;;;;;;3.35;1.17;;;;;;;-142.57;100.00;57944.44;5038003;28;20039;-83
2023/09/24 02:35:17;;;;;;;2.10;1.20;;;;;;;-142.57;100.00;58025.31;5037665;28;20037;-84
2023/09/24 02:37:47;;;;;;;1.80;1.15;;;;;;;-142.57;100.00;58023.28;5041269;28;20060;-83
2023/09/24 02:40:15;;;;;;;4.57;1.27;;;;;;;-142.57;100.00;57934.34;5043731;28;20120;-80
2023/09/24 02:42:43;;;;;;;4.07;1.15;;;;;;;-142.57;100.00;57823.16;5045186;28;20039;-81
2023/09/24 02:45:10;;;;;;;2.80;1.35;;;;;;;-142.57;100.00;57928.28;5043184;28;20041;-80
2023/09/24 02:47:36;;;;;;;4.88;1.30;;;;;;;-142.57;100.00;57831.25;5043514;28;20038;-80
2023/09/24 02:50:12;;;;;;;5.55;1.05;;;;;;;-142.57;100.00;57823.16;5037066;28;20067;-81
2023/09/24 02:52:42;;;;;;;6.75;1.55;;;;;;;-142.57;100.00;57792.81;5037368;28;20061;-82
2023/09/24 02:55:13;;;;;;;3.45;1.30;;;;;;;-142.57;100.00;57778.69;5036432;28;20033;-84
2023/09/24 02:57:44;;;;;;;2.50;1.15;;;;;;;-142.57;100.00;57742.28;5039250;28;20048;-80
2023/09/24 03:00:18;;;;;;;2.10;1.05;;;;;;;-142.57;100.00;57798.88;5037976;28;20516;-82
2023/09/24 03:02:47;;;;;;;1.35;0.68;;;;;;;-142.57;100.00;57750.38;5036620;28;20037;-81
2023/09/24 03:05:19;;;;;;;5.90;1.02;;;;;;;-142.57;100.00;57726.13;5037472;28;20032;-81
2023/09/24 03:07:45;;;;;;;2.08;0.98;;;;;;;-142.57;100.00;57764.53;5036390;28;20030;-82
2023/09/24 03:10:13;;;;;;;1.02;0.70;;;;;;;-142.57;100.00;57774.63;5035819;28;20050;-81
2023/09/24 03:12:40;;;;;;;2.85;1.00;;;;;;;-142.57;100.00;57853.47;5038644;28;20038;-81
2023/09/24 03:15:07;;;;;;;2.03;0.93;;;;;;;-142.57;98.14;57784.75;5054842;28;20041;-83
2023/09/24 03:17:33;;;;;;;4.45;0.88;;;;;;;-142.57;98.02;57893.91;5039385;28;20048;-83
2023/09/24 03:19:59;;;;;;;1.73;0.90;;;;;;;-142.57;96.47;57823.16;5035883;28;20064;-81
2023/09/24 03:22:25;;;;;;;2.22;1.10;;;;;;;-142.57;96.60;57806.97;5035215;28;20022;-80
2023/09/24 03:24:51;;;;;;;2.35;0.95;;;;;;;-142.57;96.16;57806.97;5034535;28;20048;-80
2023/09/24 03:27:17;;;;;;;3.17;0.90;;;;;;;-142.57;93.92;57908.06;5034412;28;20045;-80
2023/09/24 03:29:43;;;;;;;2.13;0.80;;;;;;;-142.57;92.80;57912.09;5035410;28;20033;-81
2023/09/24 03:32:09;;;;;;;1.58;0.90;;;;;;;-142.57;92.28;57841.34;5034054;28;20462;-83
2023/09/24 03:34:35;;;;;;;3.42;0.77;;;;;;;-142.57;93.61;57806.97;5033861;28;20072;-81
2023/09/24 03:37:00;;;;;;;1.63;0.90;;;;;;;-142.57;95.00;57720.06;5035454;28;20377;-83
2023/09/24 03:39:26;;;;;;;4.50;0.80;;;;;;;-142.57;98.02;57659.41;5033885;28;20442;-81
2023/09/24 03:41:52;;;;;;;1.38;0.77;;;;;;;-142.57;98.04;57685.69;5034139;28;20042;-81
2023/09/24 03:44:18;;;;;;;6.55;0.98;;;;;;;-142.57;95.55;57770.59;5033722;28;20029;-80
2023/09/24 03:46:44;;;;;;;2.40;1.05;;;;;;;-142.57;92.83;57855.50;5033714;28;20646;-82
2023/09/24 03:49:11;;;;;;;1.60;0.80;;;;;;;-142.57;94.47;57788.78;5035120;28;20098;-81
2023/09/24 03:51:37;;;;;;;2.08;1.02;;;;;;;-142.57;96.62;57651.31;5034887;28;20390;-83
2023/09/24 03:54:03;;;;;;;4.63;1.00;;;;;;;-142.57;96.40;57709.94;5034757;28;20042;-82
2023/09/24 03:56:28;;;;;;;3.28;0.90;;;;;;;-142.57;95.61;57718.03;5034981;28;20029;-82
2023/09/24 03:58:54;;;;;;;1.40;0.80;;;;;;;-142.57;97.57;57701.84;5034820;28;20042;-81
2023/09/24 04:01:20;;;;;;;2.58;0.98;;;;;;;-142.57;97.61;57661.44;5033173;28;20034;-83
2023/09/24 04:03:47;;;;;;;6.45;0.90;;;;;;;-142.57;98.80;57645.25;5033740;28;20528;-82
2023/09/24 04:06:13;;;;;;;5.15;0.70;;;;;;;-142.57;98.25;57637.16;5034487;28;20161;-81
2023/09/24 04:08:39;;;;;;;1.70;0.80;;;;;;;-142.57;98.20;57627.06;5034718;28;20049;-81
2023/09/24 04:11:12;;;;;;;3.33;0.80;;;;;;;-142.57;96.58;57726.13;5034613;28;20474;-81
2023/09/24 04:13:38;;;;;;;0.82;0.57;;;;;;;-142.57;94.90;57758.47;5034772;28;20130;-81
2023/09/24 04:16:14;;;;;;;2.78;0.70;;;;;;;-142.57;93.95;57756.44;5035279;28;20107;-82
2023/09/24 04:18:44;;;;;;;2.20;0.77;;;;;;;-142.57;93.79;57718.03;5053204;28;20029;-82
2023/09/24 04:21:15;;;;;;;2.42;1.00;;;;;;;-142.57;95.35;57616.94;5054882;28;20120;-84
2023/09/24 04:23:41;;;;;;;2.33;0.95;;;;;;;-142.57;93.75;57673.56;5053957;28;20037;-81
2023/09/24 04:26:07;;;;;;;1.73;0.80;;;;;;;-142.57;91.97;57724.09;5059868;28;20566;-81
2023/09/24 04:28:33;;;;;;;3.10;0.90;;;;;;;-142.57;90.16;57758.47;5062743;28;20036;-83
2023/09/24 04:30:58;;;;;;;3.10;0.82;;;;;;;-142.57;91.10;57665.47;5055504;28;20033;-81
2023/09/24 04:33:24;;;;;;;1.63;0.80;;;;;;;-142.57;90.38;57720.06;5054033;28;20021;-84
2023/09/24 04:35:50;;;;;;;3.58;0.70;;;;;;;-142.57;91.50;57718.03;5055817;28;20448;-82
2023/09/24 04:38:16;;;;;;;2.58;1.10;;;;;;;-142.57;90.67;57734.19;5068942;28;20036;-79
2023/09/24 04:40:42;;;;;;;3.15;0.85;;;;;;;-142.57;92.54;57639.19;5063984;28;20504;-83
2023/09/24 04:43:08;;;;;;;2.83;1.20;;;;;;;-142.57;95.38;57554.28;5053893;28;20041;-83
2023/09/24 04:45:35;;;;;;;2.65;0.82;;;;;;;-142.57;95.73;57523.97;5054533;28;20017;-82
2023/09/24 04:48:00;;;;;;;5.57;0.90;;;;;;;-142.57;95.41;57582.59;5055008;28;20041;-81
2023/09/24 04:50:26;;;;;;;4.00;0.82;;;;;;;-142.57;94.47;57566.41;5054959;28;20025;-85
2023/09/24 04:52:54;;;;;;;4.55;0.75;;;;;;;-142.57;94.69;57576.53;5054246;28;20033;-85
2023/09/24 04:55:20;;;;;;;1.98;0.85;;;;;;;-142.57;93.82;57566.41;5054275;28;20049;-83
2023/09/24 04:57:46;;;;;;;2.00;1.05;;;;;;;-142.57;93.88;57596.72;5054126;28;20130;-80
2023/09/24 05:00:13;;;;;;;1.77;0.73;;;;;;;-142.57;93.68;57602.81;5054120;28;20117;-84
2023/09/24 05:02:39;;;;;;;1.52;0.80;;;;;;;-142.57;93.06;57645.25;5054724;28;20040;-82
2023/09/24 05:05:05;;;;;;;1.50;0.77;;;;;;;-142.57;91.11;57647.28;5054361;28;20338;-81
2023/09/24 05:07:31;;;;;;;1.92;0.90;;;;;;;-142.57;90.45;57657.38;5054297;28;20051;-82
2023/09/24 05:09:56;;;;;;;2.40;1.10;;;;;;;-142.57;90.39;57693.78;5054240;28;20124;-82
2023/09/24 05:12:23;;;;;;;1.85;1.10;;;;;;;-142.57;89.98;57693.78;5055208;28;20440;-83
2023/09/24 05:14:48;;;;;;;4.15;0.80;;;;;;;-142.57;93.09;57532.06;5054591;28;20406;-83
2023/09/24 05:17:14;;;;;;;1.15;0.70;;;;;;;-142.57;93.39;57570.47;5055197;28;20033;-84
2023/09/24 05:19:43;;;;;;;2.72;0.98;;;;;;;-142.57;91.77;57625.03;5053433;28;20512;-82
2023/09/24 05:22:08;;;;;;;3.33;0.80;;;;;;;-142.57;90.53;57720.06;5053675;28;20036;-82
2023/09/24 05:24:34;;;;;;;2.45;1.30;;;;;;;-142.57;89.23;57711.97;5059277;28;20039;-81
2023/09/24 05:27:00;;;;;;;3.03;1.20;;;;;;;-142.57;87.65;57806.97;5056439;28;20555;-84
2023/09/24 05:29:25;;;;;;;1.65;0.88;;;;;;;-142.57;86.42;57835.28;5057033;28;20036;-81
2023/09/24 05:31:51;;;;;;;2.17;0.82;;;;;;;-142.57;84.17;58007.13;5058847;28;20459;-83
2023/09/24 05:34:17;;;;;;;4.45;1.15;;;;;;;-142.57;80.25;58077.88;5056324;28;20048;-83
2023/09/24 05:36:42;;;;;;;1.55;0.90;;;;;;;-142.57;78.05;58225.47;5055317;28;20036;-83
2023/09/24 05:39:09;;;;;;;1.80;0.80;;;;;;;-142.57;76.28;58300.28;5054793;28;20037;-82
2023/09/24 05:41:35;;;;;;;1.77;0.70;;;;;;;-142.57;74.36;58397.31;5053465;28;20029;-84
2023/09/24 05:44:04;;;;;;;2.63;1.10;;;;;;;-142.57;73.20;58324.53;5055068;28;20511;-82
2023/09/24 05:46:30;;;;;;;2.33;1.05;;;;;;;-142.57;72.01;58466.06;5054761;28;20037;-85
2023/09/24 05:48:56;;;;;;;3.85;0.80;;;;;;;-142.57;68.16;58735.00;5057757;28;20043;-87
2023/09/24 05:51:22;;;;;;;1.40;0.70;;;;;;;-142.57;69.70;58540.88;5055512;28;20041;-85
2023/09/24 05:53:48;;;;;;;3.85;0.80;;;;;;;-142.57;68.97;58684.44;5055815;28;20039;-86
2023/09/24 05:56:14;;;;;;;1.65;0.90;;;;;;;-142.57;64.05;59133.38;5055422;28;20492;-86
2023/09/24 05:58:40;;;;;;;1.60;0.90;;;;;;;-142.57;59.56;59388.19;5055726;28;20028;-85
2023/09/24 06:01:05;;;;;;;1.55;0.77;;;;;;;-142.57;56.78;59914.03;5042844;28;20033;-80
2023/09/24 06:03:31;;;;;;;1.00;0.63;;;;;;;-142.57;56.52;59669.31;5069236;28;20037;-84
2023/09/24 06:05:58;;;;;;;6.85;1.45;;;;;;;-142.57;57.19;59580.31;5055949;28;20021;-81
2023/09/24 06:08:23;;;;;;;2.65;0.65;;;;;;;-142.57;53.10;60336.81;5055898;28;20366;-83
2023/09/24 06:10:49;;;;;;;2.00;0.75;;;;;;;-142.57;49.88;60648.34;5057873;28;20069;-83
2023/09/24 06:13:15;;;;;;;4.10;1.00;;;;;;;-142.57;48.89;60755.56;5060035;28;20037;-82
2023/09/24 06:15:44;;;;;;;4.30;0.60;;;;;;;-142.57;47.04;61210.78;5061664;28;20040;-87
2023/09/24 06:18:12;;;;;;;2.80;0.70;;;;;;;-142.57;46.30;61293.75;5063232;28;20013;-89
2023/09/24 06:20:42;;;;;;;3.83;0.93;;;;;;;-142.57;46.28;60901.22;5058453;28;20389;-83
2023/09/24 06:23:10;;;;;;;2.58;0.60;;;;;;;-142.57;48.46;60850.66;5055112;28;20041;-85
2023/09/24 06:25:36;;;;;;;1.42;0.70;;;;;;;-142.57;46.51;61156.16;5052942;28;20032;-84
2023/09/24 06:28:04;;;;;;;7.32;0.90;;;;;;;-142.57;44.20;61807.72;5052818;28;20047;-83
2023/09/24 06:30:30;;;;;;;2.08;0.60;;;;;;;-142.57;46.15;60994.28;5035690;28;20037;-83
2023/09/24 06:32:56;;;;;;;2.42;0.90;;;;;;;-142.57;46.26;60982.16;5052583;28;20536;-83
2023/09/24 06:35:22;;;;;;;2.92;0.82;;;;;;;-142.57;45.63;61313.97;5051674;28;20029;-82
2023/09/24 06:37:48;;;;;;;3.15;0.90;;;;;;;-142.57;43.64;61749.03;5053228;28;20624;-81
2023/09/24 06:40:14;;;;;;;3.30;0.80;;;;;;;-142.57;45.88;61127.84;5052702;28;20039;-84
2023/09/24 06:42:39;;;;;;;3.05;0.77;;;;;;;-142.57;43.81;61605.34;5052601;28;20033;-83
2023/09/24 06:45:08;;;;;;;2.70;1.10;;;;;;;-142.57;44.36;61856.28;5051816;28;20045;-83
2023/09/24 06:47:34;;;;;;;4.03;0.70;;;;;;;-142.57;41.65;62599.03;5052263;28;20052;-79
2023/09/24 06:50:00;;;;;;;1.23;0.50;;;;;;;-142.57;41.84;62066.75;5052551;28;20048;-78
2023/09/24 06:52:26;;;;;;;2.35;0.93;;;;;;;-142.57;43.22;61718.69;5052362;28;20031;-82
2023/09/24 06:54:52;;;;;;;2.13;0.77;;;;;;;-142.57;44.71;61425.25;5052138;28;20044;-81
2023/09/24 06:57:17;;;;;;;2.38;0.70;;;;;;;-142.57;45.99;61354.44;5053786;28;20036;-82
2023/09/24 06:59:43;;;;;;;2.42;0.60;;;;;;;-142.57;45.92;61216.84;5055780;28;20095;-81
2023/09/24 07:02:09;;;;;;;2.40;1.00;;;;;;;-142.57;47.67;61146.03;5056211;28;20056;-83
2023/09/24 07:04:35;;;;;;;2.80;1.10;;;;;;;-142.57;49.85;60947.75;5055576;28;20082;-81
2023/09/24 07:07:01;;;;;;;2.60;1.02;;;;;;;-142.57;50.43;60978.13;5056087;28;20048;-83
2023/09/24 07:09:27;;;;;;;5.57;1.08;;;;;;;-142.57;50.37;61158.19;5055891;28;20029;-78
2023/09/24 07:11:52;;;;;;;5.00;1.77;;;;;;;-142.57;50.71;60860.75;5056334;28;20385;-84
2023/09/24 07:14:19;;;;;;;1.73;0.90;;;;;;;-142.57;50.21;61028.69;5055657;28;20116;-83
2023/09/24 07:16:45;;;;;;;2.97;1.40;;;;;;;-142.57;49.44;61216.84;5055798;28;20025;-81
2023/09/24 07:19:11;;;;;;;2.38;0.82;;;;;;;-142.57;49.25;61200.66;5054504;28;20086;-80
2023/09/24 07:21:37;;;;;;;4.05;1.20;;;;;;;-142.57;48.98;61366.59;5055691;28;20121;-85
2023/09/24 07:24:04;;;;;;;7.53;1.00;;;;;;;-142.57;47.49;61548.69;5055987;28;20037;-82
2023/09/24 07:26:29;;;;;;;6.15;1.70;;;;;;;-142.57;47.68;61447.53;5062628;28;20037;-82
2023/09/24 07:28:55;;;;;;;1.95;1.02;;;;;;;-142.57;47.55;61645.81;5067471;28;20043;-80
2023/09/24 07:31:25;;;;;;;4.32;1.30;;;;;;;-142.57;46.41;61874.50;5060973;28;20033;-83
2023/09/24 07:33:55;;;;;;;7.35;1.40;;;;;;;-142.57;46.67;61838.06;5055436;28;20047;-81
2023/09/24 07:36:21;;;;;;;3.65;1.02;;;;;;;-142.57;46.90;61751.06;5054775;28;20041;-82
2023/09/24 07:38:49;;;;;;;4.30;1.33;;;;;;;-142.57;44.17;62520.09;5055917;28;20041;-83
2023/09/24 07:41:16;;;;;;;4.93;1.00;;;;;;;-142.57;43.91;62289.38;5055557;28;20029;-83
2023/09/24 07:43:42;;;;;;;3.70;1.05;;;;;;;-142.57;44.33;62099.13;5055535;28;20037;-84
2023/09/24 07:46:12;;;;;;;3.88;0.80;;;;;;;-142.57;44.40;62420.94;5055688;28;20396;-83
2023/09/24 07:48:41;;;;;;;2.45;1.00;;;;;;;-142.57;41.71;63042.31;5055313;28;20041;-84
2023/09/24 07:51:07;;;;;;;3.72;1.08;;;;;;;-142.57;40.75;63066.63;5055127;28;20472;-84
2023/09/24 07:53:33;;;;;;;5.30;1.13;;;;;;;-142.57;41.83;62817.63;5055186;28;20060;-85
2023/09/24 07:56:07;;;;;;;4.45;1.10;;;;;;;-142.57;40.33;63139.50;5054814;28;20056;-84
2023/09/24 07:58:36;;;;;;;3.10;0.85;;;;;;;-142.57;40.52;62973.50;5055273;28;20112;-82
2023/09/24 08:01:04;;;;;;;3.78;0.90;;;;;;;-142.57;40.54;62852.06;5055026;28;20321;-82
2023/09/24 08:03:31;;;;;;;3.65;1.20;;;;;;;-142.57;39.71;63113.19;5055037;28;20098;-81
2023/09/24 08:05:58;;;;;;;4.30;1.10;;;;;;;-142.57;38.80;63356.09;5054463;28;20029;-81
2023/09/24 08:08:28;;;;;;;3.20;1.10;;;;;;;-142.57;38.41;63084.84;5054265;28;20040;-85
2023/09/24 08:10:54;;;;;;;2.33;0.75;;;;;;;-142.57;38.70;63390.50;5054422;28;20028;-80
2023/09/24 08:13:21;;;;;;;3.13;1.20;;;;;;;-142.57;37.17;63754.94;5054201;28;20037;-81
2023/09/24 08:15:48;;;;;;;3.03;1.17;;;;;;;-142.57;37.57;63718.50;5054272;28;20052;-83
2023/09/24 08:18:15;;;;;;;5.45;1.17;;;;;;;-142.57;37.46;63374.31;5054259;28;20458;-82
2023/09/24 08:20:41;;;;;;;2.83;0.90;;;;;;;-142.57;38.04;63188.06;5053965;28;20072;-81
2023/09/24 08:23:07;;;;;;;3.50;1.02;;;;;;;-142.57;37.48;63740.75;5053988;28;20045;-83
2023/09/24 08:25:34;;;;;;;2.97;1.08;;;;;;;-142.57;37.05;63734.69;5054314;28;20037;-82
2023/09/24 08:28:00;;;;;;;3.33;1.00;;;;;;;-142.57;37.08;63874.38;5053806;28;20033;-85
2023/09/24 08:30:30;;;;;;;7.88;1.25;;;;;;;-142.57;36.94;63588.91;5053966;28;20033;-83
2023/09/24 08:32:56;;;;;;;4.95;1.10;;;;;;;-142.57;37.02;63665.84;5053730;28;20037;-81
2023/09/24 08:35:22;;;;;;;3.90;1.30;;;;;;;-142.57;36.09;64001.94;5053925;28;20049;-80
2023/09/24 08:37:48;;;;;;;2.53;1.15;;;;;;;-142.57;36.20;64046.50;5053627;28;20116;-82
2023/09/24 08:40:15;;;;;;;3.65;1.42;;;;;;;-142.57;37.06;63635.47;5053663;28;20111;-83
2023/09/24 08:42:45;;;;;;;5.72;1.35;;;;;;;-142.57;36.23;64137.59;5054001;28;20057;-84
2023/09/24 08:45:14;;;;;;;4.15;1.23;;;;;;;-142.57;35.35;64475.75;5054879;28;20037;-83
2023/09/24 08:47:41;;;;;;;4.53;1.35;;;;;;;-142.57;35.54;64220.63;5052777;28;20041;-82
2023/09/24 08:50:08;;;;;;;4.15;1.40;;;;;;;-142.57;35.38;64103.19;5055957;28;20041;-84
2023/09/24 08:52:35;;;;;;;2.35;1.10;;;;;;;-142.57;34.64;64437.28;5066848;28;20033;-84
2023/09/24 08:55:03;;;;;;;5.07;1.33;;;;;;;-142.57;33.93;64672.19;5053849;28;20447;-84
2023/09/24 08:57:30;;;;;;;3.65;1.15;;;;;;;-142.57;34.17;64858.50;5053645;28;20040;-85
2023/09/24 08:59:56;;;;;;;4.10;1.50;;;;;;;-142.57;33.45;64722.81;5053888;28;20049;-84
2023/09/24 09:02:21;;;;;;;3.25;1.08;;;;;;;-142.57;32.87;64783.56;5053615;28;20125;-82
2023/09/24 09:04:51;;;;;;;3.53;1.10;;;;;;;-142.57;32.98;64704.59;5052257;28;20033;-82
2023/09/24 09:07:17;;;;;;;6.10;1.33;;;;;;;-142.57;32.91;64653.97;5067937;22;20041;-83
2023/09/24 09:09:56;;;;;;;2.92;1.25;;;;;;;-142.57;31.31;65417.50;5053758;28;20089;-82
2023/09/24 09:12:23;;;;;;;7.45;1.27;;;;;;;-142.57;31.25;65328.38;5055389;28;20494;-81
2023/09/24 09:14:50;;;;;;;3.38;1.17;;;;;;;-142.57;31.10;65277.75;5053405;28;20428;-82
2023/09/24 09:17:16;;;;;;;2.78;1.30;;;;;;;-142.57;31.27;64953.69;5054710;28;20119;-83
2023/09/24 09:20:00;;;;;;;1.98;1.10;;;;;;;-142.57;31.50;64986.09;5054608;28;20127;-84
2023/09/24 09:22:27;;;;;;;8.07;1.13;;;;;;;-142.57;31.76;64759.28;5052618;28;20563;-85
2023/09/24 09:25:05;;;;;;;2.50;1.35;;;;;;;-142.57;32.11;63985.75;5054512;28;20029;-83
2023/09/24 09:27:42;;;;;;;2.78;1.02;;;;;;;-142.57;31.27;64751.19;5054247;28;20040;-83
2023/09/24 09:30:18;;;;;;;1.73;1.10;;;;;;;-142.57;30.95;65140.03;5053049;28;20037;-87
2023/09/24 09:32:45;;;;;;;2.95;1.38;;;;;;;-142.57;32.02;64546.63;5054418;28;20120;-81
2023/09/24 09:35:12;;;;;;;6.95;1.42;;;;;;;-142.57;30.45;65455.97;5053866;28;20398;-84
2023/09/24 09:37:39;;;;;;;6.15;1.40;;;;;;;-142.57;30.37;65223.06;5054769;28;20515;-84
2023/09/24 09:40:09;;;;;;;5.47;1.10;;;;;;;-142.57;30.04;65966.44;5055928;28;20029;-85
2023/09/24 09:42:37;;;;;;;4.18;1.50;;;;;;;-142.57;29.98;65905.66;5055546;28;20040;-85
2023/09/24 09:45:08;;;;;;;4.47;1.30;;;;;;;-142.57;30.33;65508.66;5053991;28;20028;-83
2023/09/24 09:47:57;;;;;;;7.10;1.67;;;;;;;-142.57;29.29;66164.97;5054351;28;20100;-84
2023/09/24 09:50:25;;;;;;;4.22;1.10;;;;;;;-142.57;28.54;66764.66;5053974;28;20041;-80
2023/09/24 09:52:54;;;;;;;4.40;1.75;;;;;;;-142.57;28.73;66618.78;5036449;28;20041;-81
2023/09/24 09:55:21;;;;;;;4.97;1.13;;;;;;;-142.57;29.31;66357.44;5054288;28;20039;-83
2023/09/24 09:57:47;;;;;;;5.35;1.30;;;;;;;-142.57;28.67;66081.91;5054466;28;20044;-84
2023/09/24 10:00:16;;;;;;;5.50;1.33;;;;;;;-142.57;29.79;65553.22;5052314;28;20498;-82
2023/09/24 10:02:43;;;;;;;1.65;1.00;;;;;;;-142.57;29.35;66013.03;5053414;28;20033;-82
2023/09/24 10:05:13;;;;;;;2.65;0.80;;;;;;;-142.57;28.69;65828.69;5054779;28;20461;-83
2023/09/24 10:07:39;;;;;;;4.47;1.20;;;;;;;-142.57;28.11;66663.34;5053685;28;20075;-84
2023/09/24 10:10:30;;;;;;;5.57;1.00;;;;;;;-142.57;28.00;67068.59;5053317;28;20072;-82
2023/09/24 10:12:56;;;;;;;2.53;0.90;;;;;;;-142.57;26.58;68017.03;5054557;28;20025;-84
2023/09/24 10:15:31;;;;;;;1.58;0.85;;;;;;;-142.57;26.06;68162.97;5044068;28;20025;-86
2023/09/24 10:18:09;;;;;;;2.75;1.00;;;;;;;-142.57;25.85;68110.25;5065857;28;20037;-81
2023/09/24 10:20:50;;;;;;;2.15;0.90;;;;;;;-142.57;26.13;68298.75;5066984;28;20160;-80
2023/09/24 10:23:28;;;;;;;2.13;1.05;;;;;;;-142.57;26.86;67358.38;5066258;28;20075;-83
2023/09/24 10:25:53;;;;;;;2.63;1.05;;;;;;;-142.57;26.10;68027.16;5066549;28;20025;-84
2023/09/24 10:28:19;;;;;;;4.72;1.25;;;;;;;-142.57;26.62;67854.88;5068937;28;20044;-84
2023/09/24 10:31:05;;;;;;;3.20;1.02;;;;;;;-142.57;25.80;68053.50;5063825;28;20395;-84
2023/09/24 10:33:52;;;;;;;2.33;1.02;;;;;;;-142.57;26.03;67903.53;5071940;28;20033;-84
2023/09/24 10:36:37;;;;;;;3.53;1.08;;;;;;;-142.57;26.16;68069.72;5075315;28;20044;-84
2023/09/24 10:39:08;;;;;;;2.38;0.88;;;;;;;-142.57;26.27;67465.78;5074650;28;20037;-84
2023/09/24 10:41:36;;;;;;;2.65;0.93;;;;;;;-142.57;25.53;68556.19;5076631;28;20090;-84
2023/09/24 10:44:20;;;;;;;3.72;0.90;;;;;;;-142.57;25.10;69229.22;5077624;28;20029;-85
2023/09/24 10:46:46;;;;;;;2.20;1.02;;;;;;;-142.57;24.90;69391.44;5073294;28;20036;-82
2023/09/24 10:49:22;;;;;;;4.45;0.82;;;;;;;-142.57;24.68;70407.34;5071324;28;20044;-81
2023/09/24 10:51:48;;;;;;;1.80;0.70;;;;;;;-142.57;24.60;70867.72;5048672;28;20044;-83
2023/09/24 10:54:17;;;;;;;2.38;1.23;;;;;;;-142.57;24.31;70222.78;5063666;28;20066;-83
2023/09/24 10:56:49;;;;;;;2.95;0.80;;;;;;;-142.57;24.12;71131.41;5063357;28;20029;-85
2023/09/24 10:59:16;;;;;;;1.67;0.68;;;;;;;-142.57;23.65;70675.03;5059293;28;20044;-83
2023/09/24 11:01:44;;;;;;;1.73;0.70;;;;;;;-142.57;24.09;69849.66;5061426;28;20029;-84
2023/09/24 11:04:23;;;;;;;1.48;0.80;;;;;;;-142.57;24.09;70005.81;5065536;28;20036;-86
2023/09/24 11:06:51;;;;;;;4.93;0.88;;;;;;;-142.57;25.01;68629.16;5066274;28;20108;-89
2023/09/24 11:09:21;;;;;;;3.80;0.80;;;;;;;-142.57;25.61;68156.88;5048240;28;20040;-86
2023/09/24 11:11:48;;;;;;;1.38;0.70;;;;;;;-142.57;25.21;68769.03;5066239;28;20381;-86
2023/09/24 11:14:23;;;;;;;1.23;0.60;;;;;;;-142.57;24.98;69208.97;5062542;28;20033;-86
2023/09/24 11:16:55;;;;;;;1.50;0.63;;;;;;;-142.57;25.19;69397.50;5063751;28;20090;-87
2023/09/24 11:23:32;;;;;;;2.15;0.80;;;;;;;-142.57;23.87;71214.56;5017993;28;20128;-87